createdAt,value
2023-03-23T15:58:47.464Z,100172.81
2023-03-23T16:01:20.121Z,100170.59
2023-03-23T16:04:09.071Z,100166.78
2023-03-23T16:06:37.542Z,100167.88
2023-03-23T16:09:07.157Z,100172.75
2023-03-23T16:11:35.087Z,100172.66
2023-03-23T16:14:03.804Z,100159.81
2023-03-23T16:16:44.384Z,100156.72
2023-03-23T16:19:16.659Z,100173.00
2023-03-23T16:21:44.049Z,100161.75
2023-03-23T16:24:12.384Z,100160.13
2023-03-23T16:26:41.069Z,100160.66
2023-03-23T16:29:26.198Z,100175.94
2023-03-23T16:32:02.026Z,100167.84
2023-03-23T16:34:32.998Z,100179.59
2023-03-23T16:37:00.631Z,100182.22
2023-03-23T16:39:29.020Z,100189.84
2023-03-23T16:41:56.575Z,100173.66
2023-03-23T16:44:24.392Z,100150.97
2023-03-23T16:46:51.883Z,100167.06
2023-03-23T16:49:19.416Z,100162.88
2023-03-23T16:51:50.492Z,100164.06
2023-03-23T16:54:24.441Z,100154.22
2023-03-23T16:56:52.017Z,100153.00
2023-03-23T16:59:19.568Z,100162.69
2023-03-23T17:01:47.250Z,100161.97
2023-03-23T17:04:15.715Z,100153.94
2023-03-23T17:06:44.123Z,100152.50
2023-03-23T17:09:11.682Z,100158.19
2023-03-23T17:11:39.250Z,100151.69
2023-03-23T17:14:06.736Z,100162.66
2023-03-23T17:16:34.349Z,100157.00
2023-03-23T17:19:01.885Z,100156.19
2023-03-23T17:21:29.497Z,100154.69
2023-03-23T17:23:57.030Z,100135.41
2023-03-23T17:26:24.899Z,100149.22
2023-03-23T17:28:52.556Z,100148.66
2023-03-23T17:31:20.253Z,100150.94
2023-03-23T17:33:47.874Z,100147.69
2023-03-23T17:36:15.480Z,100140.84
2023-03-23T17:38:43.015Z,100139.47
2023-03-23T17:41:11.454Z,100129.09
2023-03-23T17:43:41.105Z,100120.97
2023-03-23T17:46:10.066Z,100127.91
2023-03-23T17:48:37.755Z,100121.56
2023-03-23T17:51:05.838Z,100141.19
2023-03-23T17:53:35.641Z,100146.16
2023-03-23T17:56:04.603Z,100131.47
2023-03-23T17:58:32.319Z,100130.63
2023-03-23T18:01:00.079Z,100127.47
2023-03-23T18:03:27.769Z,100120.47
2023-03-23T18:06:03.856Z,100122.53
2023-03-23T18:08:32.681Z,100127.78
2023-03-23T18:11:00.404Z,100130.94
2023-03-23T18:13:29.593Z,100123.19
2023-03-23T18:15:58.180Z,100115.16
2023-03-23T18:18:26.739Z,100115.63
2023-03-23T18:20:59.522Z,100107.22
2023-03-23T18:23:27.254Z,100104.97
2023-03-23T18:25:55.969Z,100104.31
2023-03-23T18:28:25.221Z,100109.28
2023-03-23T18:30:52.756Z,100105.16
2023-03-23T18:33:22.088Z,100092.72
2023-03-23T18:35:49.695Z,100110.63
2023-03-23T18:38:17.387Z,100110.56
2023-03-23T18:40:46.302Z,100098.94
2023-03-23T18:43:14.618Z,100109.16
2023-03-23T18:45:42.481Z,100101.63
2023-03-23T18:48:10.498Z,100099.22
2023-03-23T18:50:38.150Z,100101.56
2023-03-23T18:53:05.966Z,100088.56
2023-03-23T18:55:33.620Z,100085.91
2023-03-23T18:58:01.134Z,100085.78
2023-03-23T19:00:29.629Z,100084.97
2023-03-23T19:02:57.263Z,100078.44
2023-03-23T19:05:24.854Z,100075.16
2023-03-23T19:07:53.619Z,100079.34
2023-03-23T19:10:22.175Z,100072.13
2023-03-23T19:12:51.212Z,100073.81
2023-03-23T19:15:18.834Z,100053.66
2023-03-23T19:17:46.939Z,100069.38
2023-03-23T19:20:19.710Z,100067.13
2023-03-23T19:23:02.160Z,100061.00
2023-03-23T19:25:29.720Z,100058.75
2023-03-23T19:28:50.034Z,100058.88
2023-03-23T19:30:51.028Z,100058.88
2023-03-23T19:33:18.897Z,100048.13
2023-03-23T19:36:06.248Z,100051.53
2023-03-23T19:38:36.549Z,100048.53
2023-03-23T19:41:05.855Z,100039.06
2023-03-23T19:43:33.901Z,100032.38
2023-03-23T19:46:01.804Z,100042.34
2023-03-23T19:48:30.947Z,100034.69
2023-03-23T19:50:58.617Z,100031.97
2023-03-23T19:53:27.165Z,100023.72
2023-03-23T19:55:54.754Z,100031.38
2023-03-23T19:58:22.674Z,100039.72
2023-03-23T20:00:50.694Z,100034.88
2023-03-23T20:03:18.640Z,100033.81
2023-03-23T20:05:48.466Z,100036.44
2023-03-23T20:08:16.888Z,100034.47
2023-03-23T20:10:44.703Z,100021.19
2023-03-23T20:13:12.823Z,100027.78
2023-03-23T20:15:40.452Z,100025.91
2023-03-23T20:18:08.429Z,100026.28
2023-03-23T20:20:36.750Z,100022.81
2023-03-23T20:23:07.824Z,100019.22
2023-03-23T20:25:35.749Z,100012.00
2023-03-23T20:28:03.786Z,100004.69
2023-03-23T20:30:31.805Z,100002.31
2023-03-23T20:33:00.723Z,99999.34
2023-03-23T20:35:29.320Z,99998.28
2023-03-23T20:37:57.539Z,99992.78
2023-03-23T20:40:25.174Z,99986.94
2023-03-23T20:42:54.516Z,99987.00
2023-03-23T20:45:22.479Z,99978.72
2023-03-23T20:47:49.995Z,99971.47
2023-03-23T20:50:18.612Z,99975.28
2023-03-23T20:52:46.221Z,99975.81
2023-03-23T20:55:15.263Z,99971.38
2023-03-23T20:57:43.202Z,99963.94
2023-03-23T21:00:16.235Z,99963.03
2023-03-23T21:02:44.007Z,99957.78
2023-03-23T21:05:12.026Z,99957.84
2023-03-23T21:07:39.739Z,99949.19
2023-03-23T21:10:07.443Z,99943.41
2023-03-23T21:12:34.971Z,99940.25
2023-03-23T21:15:02.455Z,99926.44
2023-03-23T21:17:30.044Z,99928.91
2023-03-23T21:19:57.888Z,99918.94
2023-03-23T21:22:25.587Z,99916.66
2023-03-23T21:24:53.416Z,99920.81
2023-03-23T21:27:21.128Z,99911.47
2023-03-23T21:29:48.962Z,99905.53
2023-03-23T21:32:16.520Z,99904.88
2023-03-23T21:34:46.647Z,99891.91
2023-03-23T21:37:15.118Z,99893.00
2023-03-23T21:39:42.667Z,99884.16
2023-03-23T21:42:13.581Z,99893.19
2023-03-23T21:44:43.415Z,99884.56
2023-03-23T21:47:12.818Z,99894.81
2023-03-23T21:49:40.888Z,99880.63
2023-03-23T21:52:09.009Z,99883.09
2023-03-23T21:54:36.571Z,99878.13
2023-03-23T21:57:04.161Z,99864.13
2023-03-23T21:59:31.723Z,99875.06
2023-03-23T22:02:01.864Z,99863.19
2023-03-23T22:04:29.541Z,99861.50
2023-03-23T22:06:57.306Z,99861.34
2023-03-23T22:09:24.847Z,99869.34
2023-03-23T22:11:52.420Z,99864.25
2023-03-23T22:14:19.954Z,99856.91
2023-03-23T22:16:47.490Z,99854.16
2023-03-23T22:19:15.045Z,99846.22
2023-03-23T22:21:42.635Z,99841.16
2023-03-23T22:24:10.362Z,99842.34
2023-03-23T22:26:37.950Z,99842.16
2023-03-23T22:29:06.951Z,99835.47
2023-03-23T22:31:36.381Z,99831.63
2023-03-23T22:34:04.139Z,99827.84
2023-03-23T22:36:33.424Z,99825.97
2023-03-23T22:39:02.023Z,99818.22
2023-03-23T22:41:33.821Z,99815.91
2023-03-23T22:44:02.013Z,99803.81
2023-03-23T22:46:29.616Z,99806.31
2023-03-23T22:48:57.113Z,99798.06
2023-03-23T22:51:25.517Z,99783.06
2023-03-23T22:53:53.086Z,99799.22
2023-03-23T22:56:21.427Z,99787.47
2023-03-23T22:58:48.969Z,99778.53
2023-03-23T23:01:19.468Z,99777.88
2023-03-23T23:03:47.329Z,99774.72
2023-03-23T23:06:17.200Z,99764.38
2023-03-23T23:08:45.992Z,99758.78
2023-03-23T23:11:16.199Z,99754.41
2023-03-23T23:13:44.365Z,99752.69
2023-03-23T23:16:14.022Z,99745.94
2023-03-23T23:18:41.842Z,99746.84
2023-03-23T23:21:13.974Z,99748.84
2023-03-23T23:23:41.575Z,99743.72
2023-03-23T23:26:09.969Z,99749.41
2023-03-23T23:28:37.532Z,99732.16
2023-03-23T23:31:06.200Z,99734.00
2023-03-23T23:33:33.931Z,99729.94
2023-03-23T23:36:02.336Z,99725.69
2023-03-23T23:38:29.905Z,99726.81
2023-03-23T23:40:57.579Z,99717.41
2023-03-23T23:43:25.124Z,99709.97
2023-03-23T23:45:52.860Z,99708.63
2023-03-23T23:48:20.766Z,99706.03
2023-03-23T23:50:51.987Z,99701.53
2023-03-23T23:53:23.047Z,99695.75
2023-03-23T23:55:50.992Z,99688.53
2023-03-23T23:58:19.255Z,99691.44
